sensor_id;sensor_type;location;lat;lon;timestamp;temperature;humidity
5743;DHT22;2896;53.500;10.020;2022-07-10T00:02:01;14.40;99.90
5743;DHT22;2896;53.500;10.020;2022-07-10T00:04:28;14.40;99.90
5743;DHT22;2896;53.500;10.020;2022-07-10T00:06:56;14.40;99.90
5743;DHT22;2896;53.500;10.020;2022-07-10T00:09:23;14.40;99.90
5743;DHT22;2896;53.500;10.020;2022-07-10T00:11:50;14.40;99.90
5743;DHT22;2896;53.500;10.020;2022-07-10T00:14:16;14.30;99.90
5743;DHT22;2896;53.500;10.020;2022-07-10T00:16:43;14.30;99.90
5743;DHT22;2896;53.500;10.020;2022-07-10T00:19:10;14.40;99.90
5743;DHT22;2896;53.500;10.020;2022-07-10T00:21:36;14.40;99.90
5743;DHT22;2896;53.500;10.020;2022-07-10T00:24:05;14.40;99.90
5743;DHT22;2896;53.500;10.020;2022-07-10T00:26:31;14.40;99.90
5743;DHT22;2896;53.500;10.020;2022-07-10T00:28:58;14.40;99.90
5743;DHT22;2896;53.500;10.020;2022-07-10T00:31:25;14.30;99.90
5743;DHT22;2896;53.500;10.020;2022-07-10T00:33:51;14.30;99.90
5743;DHT22;2896;53.500;10.020;2022-07-10T00:36:18;14.30;99.90
5743;DHT22;2896;53.500;10.020;2022-07-10T00:38:44;14.30;99.90
5743;DHT22;2896;53.500;10.020;2022-07-10T00:41:12;14.20;99.90
5743;DHT22;2896;53.500;10.020;2022-07-10T00:43:52;14.20;99.90
5743;DHT22;2896;53.500;10.020;2022-07-10T00:46:19;14.20;99.90
5743;DHT22;2896;53.500;10.020;2022-07-10T00:48:46;14.20;99.90
5743;DHT22;2896;53.500;10.020;2022-07-10T00:51:13;14.10;99.90
5743;DHT22;2896;53.500;10.020;2022-07-10T00:53:40;14.10;99.90
5743;DHT22;2896;53.500;10.020;2022-07-10T00:56:07;14.00;99.90
5743;DHT22;2896;53.500;10.020;2022-07-10T00:58:35;13.90;99.90
5743;DHT22;2896;53.500;10.020;2022-07-10T01:01:02;13.90;99.90
5743;DHT22;2896;53.500;10.020;2022-07-10T01:03:29;13.80;99.90
5743;DHT22;2896;53.500;10.020;2022-07-10T01:05:56;13.70;99.90
5743;DHT22;2896;53.500;10.020;2022-07-10T01:08:22;13.70;99.90
5743;DHT22;2896;53.500;10.020;2022-07-10T01:10:49;13.70;99.90
5743;DHT22;2896;53.500;10.020;2022-07-10T01:13:16;13.60;99.90
5743;DHT22;2896;53.500;10.020;2022-07-10T01:15:44;13.60;99.90
5743;DHT22;2896;53.500;10.020;2022-07-10T01:18:12;13.60;99.90
5743;DHT22;2896;53.500;10.020;2022-07-10T01:20:39;13.60;99.90
5743;DHT22;2896;53.500;10.020;2022-07-10T01:23:07;13.60;99.90
5743;DHT22;2896;53.500;10.020;2022-07-10T01:25:34;13.60;99.90
5743;DHT22;2896;53.500;10.020;2022-07-10T01:28:01;13.50;99.90
5743;DHT22;2896;53.500;10.020;2022-07-10T01:30:27;13.60;99.90
5743;DHT22;2896;53.500;10.020;2022-07-10T01:32:54;13.60;99.90
5743;DHT22;2896;53.500;10.020;2022-07-10T01:35:21;13.50;99.90
5743;DHT22;2896;53.500;10.020;2022-07-10T01:37:47;13.40;99.90
5743;DHT22;2896;53.500;10.020;2022-07-10T01:40:15;13.40;99.90
5743;DHT22;2896;53.500;10.020;2022-07-10T01:42:42;13.30;99.90
5743;DHT22;2896;53.500;10.020;2022-07-10T01:45:09;13.40;99.90
5743;DHT22;2896;53.500;10.020;2022-07-10T01:47:36;13.40;99.90
5743;DHT22;2896;53.500;10.020;2022-07-10T01:50:04;13.40;99.90
5743;DHT22;2896;53.500;10.020;2022-07-10T01:52:31;13.30;99.90
5743;DHT22;2896;53.500;10.020;2022-07-10T01:54:57;13.20;99.90
5743;DHT22;2896;53.500;10.020;2022-07-10T01:57:25;13.20;99.90
5743;DHT22;2896;53.500;10.020;2022-07-10T01:59:52;13.20;99.90
5743;DHT22;2896;53.500;10.020;2022-07-10T02:02:19;13.20;99.90
5743;DHT22;2896;53.500;10.020;2022-07-10T02:04:46;13.20;99.90
5743;DHT22;2896;53.500;10.020;2022-07-10T02:07:14;13.20;99.90
5743;DHT22;2896;53.500;10.020;2022-07-10T02:09:41;13.20;99.90
5743;DHT22;2896;53.500;10.020;2022-07-10T02:12:10;13.30;99.90
5743;DHT22;2896;53.500;10.020;2022-07-10T02:14:39;13.30;99.90
5743;DHT22;2896;53.500;10.020;2022-07-10T02:17:07;13.30;99.90
5743;DHT22;2896;53.500;10.020;2022-07-10T02:19:34;13.30;99.90
5743;DHT22;2896;53.500;10.020;2022-07-10T02:22:01;13.30;99.90
5743;DHT22;2896;53.500;10.020;2022-07-10T02:24:28;13.30;99.90
5743;DHT22;2896;53.500;10.020;2022-07-10T02:26:54;13.40;99.90
5743;DHT22;2896;53.500;10.020;2022-07-10T02:29:22;13.40;99.90
5743;DHT22;2896;53.500;10.020;2022-07-10T02:31:50;13.50;99.90
5743;DHT22;2896;53.500;10.020;2022-07-10T02:34:17;13.50;99.90
5743;DHT22;2896;53.500;10.020;2022-07-10T02:36:43;13.60;99.90
5743;DHT22;2896;53.500;10.020;2022-07-10T02:39:10;13.60;99.90
5743;DHT22;2896;53.500;10.020;2022-07-10T02:41:36;13.60;99.90
5743;DHT22;2896;53.500;10.020;2022-07-10T02:44:03;13.60;99.90
5743;DHT22;2896;53.500;10.020;2022-07-10T02:46:30;13.50;99.90
5743;DHT22;2896;53.500;10.020;2022-07-10T02:48:58;13.50;99.90
5743;DHT22;2896;53.500;10.020;2022-07-10T02:51:25;13.40;99.90
5743;DHT22;2896;53.500;10.020;2022-07-10T02:53:51;13.40;99.90
5743;DHT22;2896;53.500;10.020;2022-07-10T02:56:18;13.30;99.90
5743;DHT22;2896;53.500;10.020;2022-07-10T02:58:45;13.30;99.90
5743;DHT22;2896;53.500;10.020;2022-07-10T03:01:11;13.30;99.90
5743;DHT22;2896;53.500;10.020;2022-07-10T03:03:38;13.30;99.90
5743;DHT22;2896;53.500;10.020;2022-07-10T03:06:06;13.40;99.90
5743;DHT22;2896;53.500;10.020;2022-07-10T03:08:33;13.40;99.90
5743;DHT22;2896;53.500;10.020;2022-07-10T03:10:59;13.50;99.90
5743;DHT22;2896;53.500;10.020;2022-07-10T03:13:26;13.50;99.90
5743;DHT22;2896;53.500;10.020;2022-07-10T03:15:54;13.50;99.90
5743;DHT22;2896;53.500;10.020;2022-07-10T03:18:21;13.50;99.90
5743;DHT22;2896;53.500;10.020;2022-07-10T03:20:47;13.50;99.90
5743;DHT22;2896;53.500;10.020;2022-07-10T03:23:15;13.50;99.90
5743;DHT22;2896;53.500;10.020;2022-07-10T03:25:42;13.60;99.90
5743;DHT22;2896;53.500;10.020;2022-07-10T03:28:08;13.60;99.90
5743;DHT22;2896;53.500;10.020;2022-07-10T03:30:35;13.60;99.90
5743;DHT22;2896;53.500;10.020;2022-07-10T03:33:02;13.60;99.90
5743;DHT22;2896;53.500;10.020;2022-07-10T03:35:29;13.60;99.90
5743;DHT22;2896;53.500;10.020;2022-07-10T03:37:56;13.60;99.90
5743;DHT22;2896;53.500;10.020;2022-07-10T03:40:24;13.60;99.90
5743;DHT22;2896;53.500;10.020;2022-07-10T03:42:51;13.70;99.90
5743;DHT22;2896;53.500;10.020;2022-07-10T03:45:18;13.70;99.90
5743;DHT22;2896;53.500;10.020;2022-07-10T03:47:45;13.80;99.90
5743;DHT22;2896;53.500;10.020;2022-07-10T03:50:11;13.80;99.90
5743;DHT22;2896;53.500;10.020;2022-07-10T03:52:38;13.90;99.90
5743;DHT22;2896;53.500;10.020;2022-07-10T03:55:06;13.90;99.90
5743;DHT22;2896;53.500;10.020;2022-07-10T03:57:34;13.90;99.90
5743;DHT22;2896;53.500;10.020;2022-07-10T04:00:18;14.00;99.90
5743;DHT22;2896;53.500;10.020;2022-07-10T04:02:45;13.90;99.90
5743;DHT22;2896;53.500;10.020;2022-07-10T04:05:12;13.90;99.90
5743;DHT22;2896;53.500;10.020;2022-07-10T04:07:38;14.00;99.90
5743;DHT22;2896;53.500;10.020;2022-07-10T04:10:06;14.00;99.90
5743;DHT22;2896;53.500;10.020;2022-07-10T04:12:35;14.00;99.90
5743;DHT22;2896;53.500;10.020;2022-07-10T04:15:03;14.00;99.90
5743;DHT22;2896;53.500;10.020;2022-07-10T04:17:29;13.90;99.90
5743;DHT22;2896;53.500;10.020;2022-07-10T04:19:58;13.90;99.90
5743;DHT22;2896;53.500;10.020;2022-07-10T04:22:24;15.00;99.90
5743;DHT22;2896;53.500;10.020;2022-07-10T04:24:51;14.00;99.90
5743;DHT22;2896;53.500;10.020;2022-07-10T04:27:18;13.90;99.90
5743;DHT22;2896;53.500;10.020;2022-07-10T04:29:46;13.90;99.90
5743;DHT22;2896;53.500;10.020;2022-07-10T04:32:13;14.00;99.90
5743;DHT22;2896;53.500;10.020;2022-07-10T04:34:39;14.10;99.90
5743;DHT22;2896;53.500;10.020;2022-07-10T04:37:06;14.10;99.90
5743;DHT22;2896;53.500;10.020;2022-07-10T04:39:34;14.20;99.90
5743;DHT22;2896;53.500;10.020;2022-07-10T04:42:01;14.20;99.90
5743;DHT22;2896;53.500;10.020;2022-07-10T04:44:28;14.30;99.90
5743;DHT22;2896;53.500;10.020;2022-07-10T04:46:56;14.30;99.90
5743;DHT22;2896;53.500;10.020;2022-07-10T04:49:24;14.30;99.90
5743;DHT22;2896;53.500;10.020;2022-07-10T04:51:50;14.30;99.90
5743;DHT22;2896;53.500;10.020;2022-07-10T04:54:17;14.40;99.90
5743;DHT22;2896;53.500;10.020;2022-07-10T04:56:43;14.40;99.90
5743;DHT22;2896;53.500;10.020;2022-07-10T04:59:11;14.40;99.90
5743;DHT22;2896;53.500;10.020;2022-07-10T05:01:38;14.40;99.90
5743;DHT22;2896;53.500;10.020;2022-07-10T05:04:06;14.50;99.90
5743;DHT22;2896;53.500;10.020;2022-07-10T05:06:33;14.50;99.90
5743;DHT22;2896;53.500;10.020;2022-07-10T05:09:00;14.60;99.90
5743;DHT22;2896;53.500;10.020;2022-07-10T05:11:27;14.70;99.90
5743;DHT22;2896;53.500;10.020;2022-07-10T05:13:53;14.70;99.90
5743;DHT22;2896;53.500;10.020;2022-07-10T05:16:20;14.70;99.90
5743;DHT22;2896;53.500;10.020;2022-07-10T05:18:47;14.60;99.90
5743;DHT22;2896;53.500;10.020;2022-07-10T05:21:15;14.40;99.90
5743;DHT22;2896;53.500;10.020;2022-07-10T05:23:42;14.40;99.90
5743;DHT22;2896;53.500;10.020;2022-07-10T05:26:08;14.50;99.90
5743;DHT22;2896;53.500;10.020;2022-07-10T05:28:35;14.50;99.90
5743;DHT22;2896;53.500;10.020;2022-07-10T05:31:02;14.60;99.90
5743;DHT22;2896;53.500;10.020;2022-07-10T05:33:29;14.50;99.90
5743;DHT22;2896;53.500;10.020;2022-07-10T05:35:56;14.70;99.90
5743;DHT22;2896;53.500;10.020;2022-07-10T05:38:24;14.60;99.90
5743;DHT22;2896;53.500;10.020;2022-07-10T05:40:50;14.90;99.90
5743;DHT22;2896;53.500;10.020;2022-07-10T05:43:18;15.00;99.90
5743;DHT22;2896;53.500;10.020;2022-07-10T05:45:45;15.10;99.90
5743;DHT22;2896;53.500;10.020;2022-07-10T05:48:12;15.30;99.90
5743;DHT22;2896;53.500;10.020;2022-07-10T05:50:39;15.20;99.90
5743;DHT22;2896;53.500;10.020;2022-07-10T05:53:05;15.30;99.90
5743;DHT22;2896;53.500;10.020;2022-07-10T05:55:33;15.20;99.90
5743;DHT22;2896;53.500;10.020;2022-07-10T05:58:00;15.30;99.90
5743;DHT22;2896;53.500;10.020;2022-07-10T06:00:26;15.30;99.90
5743;DHT22;2896;53.500;10.020;2022-07-10T06:02:53;15.40;99.90
5743;DHT22;2896;53.500;10.020;2022-07-10T06:05:20;15.40;99.90
5743;DHT22;2896;53.500;10.020;2022-07-10T06:07:47;15.70;99.90
5743;DHT22;2896;53.500;10.020;2022-07-10T06:10:13;15.70;99.90
5743;DHT22;2896;53.500;10.020;2022-07-10T06:12:41;15.70;99.90
5743;DHT22;2896;53.500;10.020;2022-07-10T06:15:09;15.60;99.90
5743;DHT22;2896;53.500;10.020;2022-07-10T06:17:35;15.90;99.90
5743;DHT22;2896;53.500;10.020;2022-07-10T06:20:02;16.00;99.90
5743;DHT22;2896;53.500;10.020;2022-07-10T06:22:29;16.00;99.90
5743;DHT22;2896;53.500;10.020;2022-07-10T06:24:59;16.20;99.90
5743;DHT22;2896;53.500;10.020;2022-07-10T06:27:26;16.40;99.90
5743;DHT22;2896;53.500;10.020;2022-07-10T06:29:55;16.40;99.90
5743;DHT22;2896;53.500;10.020;2022-07-10T06:32:22;16.40;99.90
5743;DHT22;2896;53.500;10.020;2022-07-10T06:34:49;16.40;99.90
5743;DHT22;2896;53.500;10.020;2022-07-10T06:37:16;16.60;99.90
5743;DHT22;2896;53.500;10.020;2022-07-10T06:39:42;16.80;99.90
5743;DHT22;2896;53.500;10.020;2022-07-10T06:42:09;16.50;99.90
5743;DHT22;2896;53.500;10.020;2022-07-10T06:44:36;16.50;99.90
5743;DHT22;2896;53.500;10.020;2022-07-10T06:47:04;16.40;99.90
5743;DHT22;2896;53.500;10.020;2022-07-10T06:49:50;16.50;99.90
5743;DHT22;2896;53.500;10.020;2022-07-10T06:52:17;16.60;99.90
5743;DHT22;2896;53.500;10.020;2022-07-10T06:54:44;16.70;99.90
5743;DHT22;2896;53.500;10.020;2022-07-10T06:57:10;16.80;99.90
5743;DHT22;2896;53.500;10.020;2022-07-10T06:59:37;17.00;99.90
5743;DHT22;2896;53.500;10.020;2022-07-10T07:02:05;17.00;99.90
5743;DHT22;2896;53.500;10.020;2022-07-10T07:04:32;17.10;99.90
5743;DHT22;2896;53.500;10.020;2022-07-10T07:06:59;17.10;99.90
5743;DHT22;2896;53.500;10.020;2022-07-10T07:09:25;17.30;99.90
5743;DHT22;2896;53.500;10.020;2022-07-10T07:11:52;17.40;99.90
5743;DHT22;2896;53.500;10.020;2022-07-10T07:14:19;17.60;99.90
5743;DHT22;2896;53.500;10.020;2022-07-10T07:16:45;17.90;99.90
5743;DHT22;2896;53.500;10.020;2022-07-10T07:19:24;18.00;99.90
5743;DHT22;2896;53.500;10.020;2022-07-10T07:21:57;17.90;99.90
5743;DHT22;2896;53.500;10.020;2022-07-10T07:24:42;18.10;99.90
5743;DHT22;2896;53.500;10.020;2022-07-10T07:27:09;18.10;99.90
5743;DHT22;2896;53.500;10.020;2022-07-10T07:29:36;18.40;99.90
5743;DHT22;2896;53.500;10.020;2022-07-10T07:32:03;18.80;99.90
5743;DHT22;2896;53.500;10.020;2022-07-10T07:34:32;18.80;99.90
5743;DHT22;2896;53.500;10.020;2022-07-10T07:36:58;18.90;99.90
5743;DHT22;2896;53.500;10.020;2022-07-10T07:39:25;19.10;99.90
5743;DHT22;2896;53.500;10.020;2022-07-10T07:41:51;18.90;99.90
5743;DHT22;2896;53.500;10.020;2022-07-10T07:44:18;18.90;99.90
5743;DHT22;2896;53.500;10.020;2022-07-10T07:46:45;18.90;99.90
5743;DHT22;2896;53.500;10.020;2022-07-10T07:49:11;18.70;99.90
5743;DHT22;2896;53.500;10.020;2022-07-10T07:51:39;18.30;99.90
5743;DHT22;2896;53.500;10.020;2022-07-10T07:54:06;18.20;99.90
5743;DHT22;2896;53.500;10.020;2022-07-10T07:56:33;18.20;99.90
5743;DHT22;2896;53.500;10.020;2022-07-10T07:58:59;18.40;99.90
5743;DHT22;2896;53.500;10.020;2022-07-10T08:01:26;18.70;99.90
5743;DHT22;2896;53.500;10.020;2022-07-10T08:03:53;19.00;99.90
5743;DHT22;2896;53.500;10.020;2022-07-10T08:06:20;18.70;99.90
5743;DHT22;2896;53.500;10.020;2022-07-10T08:08:48;18.50;99.90
5743;DHT22;2896;53.500;10.020;2022-07-10T08:11:16;18.30;99.90
5743;DHT22;2896;53.500;10.020;2022-07-10T08:13:42;18.40;99.90
5743;DHT22;2896;53.500;10.020;2022-07-10T08:16:09;18.40;99.90
5743;DHT22;2896;53.500;10.020;2022-07-10T08:18:36;18.50;99.90
5743;DHT22;2896;53.500;10.020;2022-07-10T08:21:03;18.60;99.90
5743;DHT22;2896;53.500;10.020;2022-07-10T08:23:29;18.70;99.90
5743;DHT22;2896;53.500;10.020;2022-07-10T08:25:57;18.70;99.90
5743;DHT22;2896;53.500;10.020;2022-07-10T08:28:24;19.00;99.90
5743;DHT22;2896;53.500;10.020;2022-07-10T08:30:50;19.10;99.90
5743;DHT22;2896;53.500;10.020;2022-07-10T08:33:17;19.40;99.90
5743;DHT22;2896;53.500;10.020;2022-07-10T08:35:44;19.50;99.90
5743;DHT22;2896;53.500;10.020;2022-07-10T08:38:11;19.90;99.90
5743;DHT22;2896;53.500;10.020;2022-07-10T08:40:38;20.20;99.90
5743;DHT22;2896;53.500;10.020;2022-07-10T08:43:07;20.40;99.90
5743;DHT22;2896;53.500;10.020;2022-07-10T08:45:34;20.50;99.90
5743;DHT22;2896;53.500;10.020;2022-07-10T08:48:02;20.80;99.90
5743;DHT22;2896;53.500;10.020;2022-07-10T08:50:33;20.60;99.90
5743;DHT22;2896;53.500;10.020;2022-07-10T08:53:03;20.10;99.90
5743;DHT22;2896;53.500;10.020;2022-07-10T08:55:35;20.20;99.90
5743;DHT22;2896;53.500;10.020;2022-07-10T08:58:02;20.20;99.90
5743;DHT22;2896;53.500;10.020;2022-07-10T09:00:31;20.80;99.90
5743;DHT22;2896;53.500;10.020;2022-07-10T09:02:57;20.70;99.90
5743;DHT22;2896;53.500;10.020;2022-07-10T09:05:25;20.50;99.90
5743;DHT22;2896;53.500;10.020;2022-07-10T09:07:52;20.10;99.90
5743;DHT22;2896;53.500;10.020;2022-07-10T09:10:20;20.30;99.90
5743;DHT22;2896;53.500;10.020;2022-07-10T09:12:52;20.70;99.90
5743;DHT22;2896;53.500;10.020;2022-07-10T09:15:21;20.60;99.90
5743;DHT22;2896;53.500;10.020;2022-07-10T09:17:54;20.80;99.90
5743;DHT22;2896;53.500;10.020;2022-07-10T09:20:28;20.40;99.90
5743;DHT22;2896;53.500;10.020;2022-07-10T09:22:56;20.80;99.90
5743;DHT22;2896;53.500;10.020;2022-07-10T09:25:30;21.20;99.90
5743;DHT22;2896;53.500;10.020;2022-07-10T09:27:57;22.00;99.90
5743;DHT22;2896;53.500;10.020;2022-07-10T09:30:34;21.50;99.90
5743;DHT22;2896;53.500;10.020;2022-07-10T09:33:22;21.30;99.90
5743;DHT22;2896;53.500;10.020;2022-07-10T09:35:59;21.30;99.90
5743;DHT22;2896;53.500;10.020;2022-07-10T09:38:51;21.90;99.90
5743;DHT22;2896;53.500;10.020;2022-07-10T09:41:21;21.30;99.90
5743;DHT22;2896;53.500;10.020;2022-07-10T09:43:49;21.30;99.90
5743;DHT22;2896;53.500;10.020;2022-07-10T09:46:17;21.50;99.90
5743;DHT22;2896;53.500;10.020;2022-07-10T09:48:46;21.80;99.90
5743;DHT22;2896;53.500;10.020;2022-07-10T09:51:12;22.20;99.90
5743;DHT22;2896;53.500;10.020;2022-07-10T09:53:41;22.60;99.90
5743;DHT22;2896;53.500;10.020;2022-07-10T09:56:09;22.70;99.90
5743;DHT22;2896;53.500;10.020;2022-07-10T09:58:37;22.40;99.90
5743;DHT22;2896;53.500;10.020;2022-07-10T10:01:05;22.40;99.90
5743;DHT22;2896;53.500;10.020;2022-07-10T10:03:33;22.20;99.90
5743;DHT22;2896;53.500;10.020;2022-07-10T10:06:04;21.90;99.90
5743;DHT22;2896;53.500;10.020;2022-07-10T10:08:39;22.00;99.90
5743;DHT22;2896;53.500;10.020;2022-07-10T10:11:14;21.70;99.90
5743;DHT22;2896;53.500;10.020;2022-07-10T10:13:41;21.40;99.90
5743;DHT22;2896;53.500;10.020;2022-07-10T10:16:09;22.10;99.90
5743;DHT22;2896;53.500;10.020;2022-07-10T10:18:36;22.40;99.90
5743;DHT22;2896;53.500;10.020;2022-07-10T10:21:26;22.70;99.90
5743;DHT22;2896;53.500;10.020;2022-07-10T10:23:53;23.20;99.90
5743;DHT22;2896;53.500;10.020;2022-07-10T10:26:21;23.30;99.90
5743;DHT22;2896;53.500;10.020;2022-07-10T10:28:48;23.50;99.90
5743;DHT22;2896;53.500;10.020;2022-07-10T10:31:15;22.60;99.90
5743;DHT22;2896;53.500;10.020;2022-07-10T10:33:42;22.00;99.90
5743;DHT22;2896;53.500;10.020;2022-07-10T10:36:11;22.30;99.90
5743;DHT22;2896;53.500;10.020;2022-07-10T10:39:02;22.70;99.90
5743;DHT22;2896;53.500;10.020;2022-07-10T10:41:30;22.80;99.90
5743;DHT22;2896;53.500;10.020;2022-07-10T10:44:25;22.80;99.90
5743;DHT22;2896;53.500;10.020;2022-07-10T10:47:03;22.50;99.90
5743;DHT22;2896;53.500;10.020;2022-07-10T10:52:25;22.20;99.90
5743;DHT22;2896;53.500;10.020;2022-07-10T10:55:08;22.50;99.90
5743;DHT22;2896;53.500;10.020;2022-07-10T10:57:38;22.90;99.90
5743;DHT22;2896;53.500;10.020;2022-07-10T11:00:15;22.70;99.90
5743;DHT22;2896;53.500;10.020;2022-07-10T11:03:12;22.30;99.90
5743;DHT22;2896;53.500;10.020;2022-07-10T11:05:40;22.80;99.90
5743;DHT22;2896;53.500;10.020;2022-07-10T11:08:08;23.40;99.90
5743;DHT22;2896;53.500;10.020;2022-07-10T11:10:37;22.70;99.90
5743;DHT22;2896;53.500;10.020;2022-07-10T11:13:05;22.50;99.90
5743;DHT22;2896;53.500;10.020;2022-07-10T11:15:33;23.00;99.90
5743;DHT22;2896;53.500;10.020;2022-07-10T11:18:03;22.60;99.90
5743;DHT22;2896;53.500;10.020;2022-07-10T11:20:33;22.60;99.90
5743;DHT22;2896;53.500;10.020;2022-07-10T11:23:32;22.90;99.90
5743;DHT22;2896;53.500;10.020;2022-07-10T11:26:04;22.50;99.90
5743;DHT22;2896;53.500;10.020;2022-07-10T11:28:53;23.20;99.90
5743;DHT22;2896;53.500;10.020;2022-07-10T11:31:22;23.80;99.90
5743;DHT22;2896;53.500;10.020;2022-07-10T11:33:50;22.90;99.90
5743;DHT22;2896;53.500;10.020;2022-07-10T11:36:18;22.70;99.90
5743;DHT22;2896;53.500;10.020;2022-07-10T11:38:47;22.80;99.90
5743;DHT22;2896;53.500;10.020;2022-07-10T11:41:16;23.20;99.90
5743;DHT22;2896;53.500;10.020;2022-07-10T11:43:47;23.50;99.90
5743;DHT22;2896;53.500;10.020;2022-07-10T11:46:14;23.70;99.90
5743;DHT22;2896;53.500;10.020;2022-07-10T11:48:41;23.50;99.90
5743;DHT22;2896;53.500;10.020;2022-07-10T11:51:19;23.60;99.90
5743;DHT22;2896;53.500;10.020;2022-07-10T11:53:57;24.10;99.90
5743;DHT22;2896;53.500;10.020;2022-07-10T11:56:27;24.80;99.90
5743;DHT22;2896;53.500;10.020;2022-07-10T11:58:55;25.10;99.90
5743;DHT22;2896;53.500;10.020;2022-07-10T12:01:22;24.50;99.90
5743;DHT22;2896;53.500;10.020;2022-07-10T12:03:59;23.60;99.90
5743;DHT22;2896;53.500;10.020;2022-07-10T12:06:26;23.70;99.90
5743;DHT22;2896;53.500;10.020;2022-07-10T12:08:54;23.80;99.90
5743;DHT22;2896;53.500;10.020;2022-07-10T12:11:21;23.80;99.90
5743;DHT22;2896;53.500;10.020;2022-07-10T12:13:50;23.70;99.90
5743;DHT22;2896;53.500;10.020;2022-07-10T12:16:19;24.50;99.90
5743;DHT22;2896;53.500;10.020;2022-07-10T12:18:46;24.80;99.90
5743;DHT22;2896;53.500;10.020;2022-07-10T12:21:14;24.40;99.90
5743;DHT22;2896;53.500;10.020;2022-07-10T12:23:44;23.90;99.90
5743;DHT22;2896;53.500;10.020;2022-07-10T12:26:12;23.90;99.90
5743;DHT22;2896;53.500;10.020;2022-07-10T12:28:54;23.90;99.90
5743;DHT22;2896;53.500;10.020;2022-07-10T12:31:22;23.70;99.90
5743;DHT22;2896;53.500;10.020;2022-07-10T12:33:53;24.10;99.90
5743;DHT22;2896;53.500;10.020;2022-07-10T12:36:23;24.20;99.90
5743;DHT22;2896;53.500;10.020;2022-07-10T12:38:54;23.90;99.90
5743;DHT22;2896;53.500;10.020;2022-07-10T12:41:23;23.20;99.90
5743;DHT22;2896;53.500;10.020;2022-07-10T12:43:52;22.80;99.90
5743;DHT22;2896;53.500;10.020;2022-07-10T12:46:21;22.60;99.90
5743;DHT22;2896;53.500;10.020;2022-07-10T12:49:04;22.80;99.90
5743;DHT22;2896;53.500;10.020;2022-07-10T12:51:33;22.70;99.90
5743;DHT22;2896;53.500;10.020;2022-07-10T12:54:00;22.40;99.90
5743;DHT22;2896;53.500;10.020;2022-07-10T12:56:34;22.20;99.90
5743;DHT22;2896;53.500;10.020;2022-07-10T12:59:11;22.20;99.90
5743;DHT22;2896;53.500;10.020;2022-07-10T13:01:40;21.90;99.90
5743;DHT22;2896;53.500;10.020;2022-07-10T13:04:07;22.50;99.90
5743;DHT22;2896;53.500;10.020;2022-07-10T13:06:35;23.10;99.90
5743;DHT22;2896;53.500;10.020;2022-07-10T13:09:02;22.90;99.90
5743;DHT22;2896;53.500;10.020;2022-07-10T13:11:29;22.60;99.90
5743;DHT22;2896;53.500;10.020;2022-07-10T13:13:56;22.60;99.90
5743;DHT22;2896;53.500;10.020;2022-07-10T13:16:24;22.50;99.90
5743;DHT22;2896;53.500;10.020;2022-07-10T13:18:51;22.20;99.90
5743;DHT22;2896;53.500;10.020;2022-07-10T13:21:17;22.90;99.90
5743;DHT22;2896;53.500;10.020;2022-07-10T13:23:44;23.00;99.90
5743;DHT22;2896;53.500;10.020;2022-07-10T13:26:10;23.00;99.90
5743;DHT22;2896;53.500;10.020;2022-07-10T13:28:38;23.10;99.90
5743;DHT22;2896;53.500;10.020;2022-07-10T13:31:05;22.90;99.90
5743;DHT22;2896;53.500;10.020;2022-07-10T13:33:34;22.40;99.90
5743;DHT22;2896;53.500;10.020;2022-07-10T13:36:01;22.10;99.90
5743;DHT22;2896;53.500;10.020;2022-07-10T13:38:28;22.50;99.90
5743;DHT22;2896;53.500;10.020;2022-07-10T13:40:55;24.20;99.90
5743;DHT22;2896;53.500;10.020;2022-07-10T13:43:22;22.60;99.90
5743;DHT22;2896;53.500;10.020;2022-07-10T13:45:52;22.20;99.90
5743;DHT22;2896;53.500;10.020;2022-07-10T13:48:19;22.60;99.90
5743;DHT22;2896;53.500;10.020;2022-07-10T13:50:47;23.80;99.90
5743;DHT22;2896;53.500;10.020;2022-07-10T13:53:15;22.80;99.90
5743;DHT22;2896;53.500;10.020;2022-07-10T13:55:42;22.20;99.90
5743;DHT22;2896;53.500;10.020;2022-07-10T13:58:10;22.30;99.90
5743;DHT22;2896;53.500;10.020;2022-07-10T14:00:37;22.20;99.90
5743;DHT22;2896;53.500;10.020;2022-07-10T14:03:04;22.00;99.90
5743;DHT22;2896;53.500;10.020;2022-07-10T14:05:33;21.90;99.90
5743;DHT22;2896;53.500;10.020;2022-07-10T14:08:01;21.90;99.90
5743;DHT22;2896;53.500;10.020;2022-07-10T14:10:28;22.20;99.90
5743;DHT22;2896;53.500;10.020;2022-07-10T14:12:55;22.00;99.90
5743;DHT22;2896;53.500;10.020;2022-07-10T14:15:22;21.90;99.90
5743;DHT22;2896;53.500;10.020;2022-07-10T14:17:48;22.00;99.90
5743;DHT22;2896;53.500;10.020;2022-07-10T14:20:17;21.80;99.90
5743;DHT22;2896;53.500;10.020;2022-07-10T14:22:43;22.10;99.90
5743;DHT22;2896;53.500;10.020;2022-07-10T14:25:14;22.30;99.90
5743;DHT22;2896;53.500;10.020;2022-07-10T14:27:41;22.20;99.90
5743;DHT22;2896;53.500;10.020;2022-07-10T14:30:09;22.00;99.90
5743;DHT22;2896;53.500;10.020;2022-07-10T14:32:35;22.20;99.90
5743;DHT22;2896;53.500;10.020;2022-07-10T14:35:03;22.10;99.90
5743;DHT22;2896;53.500;10.020;2022-07-10T14:37:30;22.30;99.90
5743;DHT22;2896;53.500;10.020;2022-07-10T14:39:56;22.60;99.90
5743;DHT22;2896;53.500;10.020;2022-07-10T14:42:24;22.60;99.90
5743;DHT22;2896;53.500;10.020;2022-07-10T14:44:51;22.50;99.90
5743;DHT22;2896;53.500;10.020;2022-07-10T14:47:17;22.30;99.90
5743;DHT22;2896;53.500;10.020;2022-07-10T14:49:44;22.00;99.90
5743;DHT22;2896;53.500;10.020;2022-07-10T14:52:11;21.70;99.90
5743;DHT22;2896;53.500;10.020;2022-07-10T14:54:39;21.60;99.90
5743;DHT22;2896;53.500;10.020;2022-07-10T14:57:05;22.10;99.90
5743;DHT22;2896;53.500;10.020;2022-07-10T14:59:33;22.10;99.90
5743;DHT22;2896;53.500;10.020;2022-07-10T15:02:00;22.20;99.90
5743;DHT22;2896;53.500;10.020;2022-07-10T15:04:26;22.10;99.90
5743;DHT22;2896;53.500;10.020;2022-07-10T15:06:53;22.00;99.90
5743;DHT22;2896;53.500;10.020;2022-07-10T15:09:20;21.80;99.90
5743;DHT22;2896;53.500;10.020;2022-07-10T15:11:46;21.50;99.90
5743;DHT22;2896;53.500;10.020;2022-07-10T15:14:13;21.30;99.90
5743;DHT22;2896;53.500;10.020;2022-07-10T15:16:41;21.10;99.90
5743;DHT22;2896;53.500;10.020;2022-07-10T15:19:08;21.10;99.90
5743;DHT22;2896;53.500;10.020;2022-07-10T15:21:36;21.10;99.90
5743;DHT22;2896;53.500;10.020;2022-07-10T15:24:03;21.20;99.90
5743;DHT22;2896;53.500;10.020;2022-07-10T15:26:30;21.30;99.90
5743;DHT22;2896;53.500;10.020;2022-07-10T15:28:56;20.90;99.90
5743;DHT22;2896;53.500;10.020;2022-07-10T15:31:24;21.00;99.90
5743;DHT22;2896;53.500;10.020;2022-07-10T15:33:52;21.00;99.90
5743;DHT22;2896;53.500;10.020;2022-07-10T15:36:18;21.10;99.90
5743;DHT22;2896;53.500;10.020;2022-07-10T15:38:47;21.10;99.90
5743;DHT22;2896;53.500;10.020;2022-07-10T15:41:13;21.10;99.90
5743;DHT22;2896;53.500;10.020;2022-07-10T15:43:40;21.70;99.90
5743;DHT22;2896;53.500;10.020;2022-07-10T15:46:08;21.40;99.90
5743;DHT22;2896;53.500;10.020;2022-07-10T15:48:34;21.30;99.90
5743;DHT22;2896;53.500;10.020;2022-07-10T15:51:04;21.80;99.90
5743;DHT22;2896;53.500;10.020;2022-07-10T15:53:31;22.00;99.90
5743;DHT22;2896;53.500;10.020;2022-07-10T15:55:57;22.20;99.90